sensor_id;sensor_type;location;lat;lon;timestamp;P1;durP1;ratioP1;P2;durP2;ratioP2
36001;SDS011;22070;50.922;5.430;2022-10-16T00:00:34;4.50;;;0.90;;
36001;SDS011;22070;50.922;5.430;2022-10-16T00:03:01;4.80;;;0.90;;
36001;SDS011;22070;50.922;5.430;2022-10-16T00:05:27;2.60;;;0.70;;
36001;SDS011;22070;50.922;5.430;2022-10-16T00:07:53;3.30;;;0.70;;
36001;SDS011;22070;50.922;5.430;2022-10-16T00:10:18;2.93;;;0.83;;
36001;SDS011;22070;50.922;5.430;2022-10-16T00:12:44;1.83;;;1.05;;
36001;SDS011;22070;50.922;5.430;2022-10-16T00:15:10;1.38;;;1.02;;
36001;SDS011;22070;50.922;5.430;2022-10-16T00:17:36;1.80;;;0.90;;
36001;SDS011;22070;50.922;5.430;2022-10-16T00:20:02;1.73;;;0.87;;
36001;SDS011;22070;50.922;5.430;2022-10-16T00:22:28;1.08;;;0.80;;
36001;SDS011;22070;50.922;5.430;2022-10-16T00:24:54;3.23;;;0.83;;
36001;SDS011;22070;50.922;5.430;2022-10-16T00:27:19;0.50;;;0.50;;
36001;SDS011;22070;50.922;5.430;2022-10-16T00:29:49;1.50;;;0.82;;
36001;SDS011;22070;50.922;5.430;2022-10-16T00:32:15;1.48;;;0.60;;
36001;SDS011;22070;50.922;5.430;2022-10-16T00:34:41;0.93;;;0.60;;
36001;SDS011;22070;50.922;5.430;2022-10-16T00:37:06;4.70;;;0.67;;
36001;SDS011;22070;50.922;5.430;2022-10-16T00:39:32;4.80;;;0.70;;
36001;SDS011;22070;50.922;5.430;2022-10-16T00:41:57;1.70;;;0.40;;
36001;SDS011;22070;50.922;5.430;2022-10-16T00:47:23;0.68;;;0.63;;
36001;SDS011;22070;50.922;5.430;2022-10-16T00:49:50;2.08;;;0.63;;
36001;SDS011;22070;50.922;5.430;2022-10-16T00:52:17;2.08;;;0.68;;
36001;SDS011;22070;50.922;5.430;2022-10-16T00:54:44;1.10;;;0.52;;
36001;SDS011;22070;50.922;5.430;2022-10-16T00:57:12;2.83;;;0.70;;
36001;SDS011;22070;50.922;5.430;2022-10-16T00:59:39;7.05;;;0.85;;
36001;SDS011;22070;50.922;5.430;2022-10-16T01:02:09;0.63;;;0.63;;
36001;SDS011;22070;50.922;5.430;2022-10-16T01:04:38;0.75;;;0.60;;
36001;SDS011;22070;50.922;5.430;2022-10-16T01:15:36;1.60;;;0.70;;
36001;SDS011;22070;50.922;5.430;2022-10-16T01:21:00;0.60;;;0.60;;
36001;SDS011;22070;50.922;5.430;2022-10-16T01:26:24;4.03;;;0.73;;
36001;SDS011;22070;50.922;5.430;2022-10-16T01:29:05;2.67;;;0.73;;
36001;SDS011;22070;50.922;5.430;2022-10-16T01:31:39;2.17;;;0.70;;
36001;SDS011;22070;50.922;5.430;2022-10-16T01:36:47;5.03;;;0.60;;
36001;SDS011;22070;50.922;5.430;2022-10-16T01:39:21;2.67;;;0.47;;
36001;SDS011;22070;50.922;5.430;2022-10-16T01:41:52;2.72;;;0.77;;
36001;SDS011;22070;50.922;5.430;2022-10-16T01:44:25;4.13;;;0.68;;
36001;SDS011;22070;50.922;5.430;2022-10-16T01:46:54;2.05;;;0.93;;
36001;SDS011;22070;50.922;5.430;2022-10-16T01:49:21;2.50;;;0.70;;
36001;SDS011;22070;50.922;5.430;2022-10-16T01:51:51;1.20;;;0.60;;
36001;SDS011;22070;50.922;5.430;2022-10-16T01:54:21;2.15;;;0.80;;
36001;SDS011;22070;50.922;5.430;2022-10-16T01:56:50;3.72;;;0.85;;
36001;SDS011;22070;50.922;5.430;2022-10-16T01:59:18;3.20;;;0.60;;
36001;SDS011;22070;50.922;5.430;2022-10-16T02:01:50;1.15;;;0.73;;
36001;SDS011;22070;50.922;5.430;2022-10-16T02:04:24;1.73;;;0.60;;
36001;SDS011;22070;50.922;5.430;2022-10-16T02:06:55;1.08;;;0.65;;
36001;SDS011;22070;50.922;5.430;2022-10-16T02:09:21;1.43;;;0.60;;
36001;SDS011;22070;50.922;5.430;2022-10-16T02:11:47;1.37;;;0.50;;
36001;SDS011;22070;50.922;5.430;2022-10-16T02:14:14;1.90;;;0.52;;
36001;SDS011;22070;50.922;5.430;2022-10-16T02:16:41;1.87;;;0.60;;
36001;SDS011;22070;50.922;5.430;2022-10-16T02:19:09;3.40;;;0.70;;
36001;SDS011;22070;50.922;5.430;2022-10-16T02:27:20;2.35;;;0.70;;
36001;SDS011;22070;50.922;5.430;2022-10-16T02:30:02;1.20;;;0.75;;
36001;SDS011;22070;50.922;5.430;2022-10-16T02:32:35;1.60;;;0.95;;
36001;SDS011;22070;50.922;5.430;2022-10-16T02:35:04;3.60;;;0.80;;
36001;SDS011;22070;50.922;5.430;2022-10-16T02:37:32;1.85;;;0.70;;
36001;SDS011;22070;50.922;5.430;2022-10-16T02:39:58;1.80;;;1.00;;
36001;SDS011;22070;50.922;5.430;2022-10-16T02:42:28;0.87;;;0.70;;
36001;SDS011;22070;50.922;5.430;2022-10-16T02:44:57;4.78;;;0.93;;
36001;SDS011;22070;50.922;5.430;2022-10-16T02:47:23;2.33;;;0.95;;
36001;SDS011;22070;50.922;5.430;2022-10-16T02:49:48;1.63;;;0.80;;
36001;SDS011;22070;50.922;5.430;2022-10-16T02:52:14;1.98;;;0.77;;
36001;SDS011;22070;50.922;5.430;2022-10-16T02:54:40;1.95;;;0.98;;
36001;SDS011;22070;50.922;5.430;2022-10-16T02:57:05;1.25;;;0.77;;
36001;SDS011;22070;50.922;5.430;2022-10-16T02:59:31;1.40;;;0.90;;
36001;SDS011;22070;50.922;5.430;2022-10-16T03:01:56;3.15;;;0.73;;
36001;SDS011;22070;50.922;5.430;2022-10-16T03:04:22;2.25;;;0.75;;
36001;SDS011;22070;50.922;5.430;2022-10-16T03:06:48;0.80;;;0.60;;
36001;SDS011;22070;50.922;5.430;2022-10-16T03:09:13;5.88;;;0.80;;
36001;SDS011;22070;50.922;5.430;2022-10-16T03:11:39;1.93;;;0.70;;
36001;SDS011;22070;50.922;5.430;2022-10-16T03:14:04;1.60;;;0.90;;
36001;SDS011;22070;50.922;5.430;2022-10-16T03:16:30;5.53;;;1.00;;
36001;SDS011;22070;50.922;5.430;2022-10-16T03:18:56;0.52;;;0.52;;
36001;SDS011;22070;50.922;5.430;2022-10-16T03:21:21;2.30;;;0.88;;
36001;SDS011;22070;50.922;5.430;2022-10-16T03:23:47;4.70;;;0.80;;
36001;SDS011;22070;50.922;5.430;2022-10-16T03:26:12;10.70;;;1.17;;
36001;SDS011;22070;50.922;5.430;2022-10-16T03:28:38;1.15;;;0.90;;
36001;SDS011;22070;50.922;5.430;2022-10-16T03:31:04;1.20;;;0.68;;
36001;SDS011;22070;50.922;5.430;2022-10-16T03:33:29;2.08;;;1.00;;
36001;SDS011;22070;50.922;5.430;2022-10-16T03:35:55;1.73;;;0.90;;
36001;SDS011;22070;50.922;5.430;2022-10-16T03:38:21;2.92;;;0.90;;
36001;SDS011;22070;50.922;5.430;2022-10-16T03:40:47;1.65;;;0.88;;
36001;SDS011;22070;50.922;5.430;2022-10-16T03:43:13;1.65;;;0.93;;
36001;SDS011;22070;50.922;5.430;2022-10-16T03:45:39;2.92;;;1.10;;
36001;SDS011;22070;50.922;5.430;2022-10-16T03:48:05;2.75;;;1.15;;
36001;SDS011;22070;50.922;5.430;2022-10-16T03:50:30;0.70;;;0.63;;
36001;SDS011;22070;50.922;5.430;2022-10-16T03:52:56;2.42;;;1.20;;
36001;SDS011;22070;50.922;5.430;2022-10-16T03:55:22;3.00;;;1.23;;
36001;SDS011;22070;50.922;5.430;2022-10-16T03:57:47;1.85;;;1.00;;
36001;SDS011;22070;50.922;5.430;2022-10-16T04:00:13;1.75;;;1.10;;
36001;SDS011;22070;50.922;5.430;2022-10-16T04:02:39;4.60;;;0.90;;
36001;SDS011;22070;50.922;5.430;2022-10-16T04:05:05;1.65;;;0.88;;
36001;SDS011;22070;50.922;5.430;2022-10-16T04:07:30;2.30;;;1.20;;
36001;SDS011;22070;50.922;5.430;2022-10-16T04:09:56;2.90;;;1.20;;
36001;SDS011;22070;50.922;5.430;2022-10-16T04:12:23;4.30;;;1.20;;
36001;SDS011;22070;50.922;5.430;2022-10-16T04:14:50;2.55;;;1.13;;
36001;SDS011;22070;50.922;5.430;2022-10-16T04:17:15;1.27;;;1.10;;
36001;SDS011;22070;50.922;5.430;2022-10-16T04:19:41;4.78;;;0.90;;
36001;SDS011;22070;50.922;5.430;2022-10-16T04:22:07;1.43;;;1.23;;
36001;SDS011;22070;50.922;5.430;2022-10-16T04:24:33;2.80;;;1.40;;
36001;SDS011;22070;50.922;5.430;2022-10-16T04:26:58;3.97;;;1.40;;
36001;SDS011;22070;50.922;5.430;2022-10-16T04:29:24;3.30;;;1.55;;
36001;SDS011;22070;50.922;5.430;2022-10-16T04:31:49;2.60;;;1.05;;
36001;SDS011;22070;50.922;5.430;2022-10-16T04:34:15;1.73;;;1.33;;
36001;SDS011;22070;50.922;5.430;2022-10-16T04:36:41;2.35;;;1.40;;
36001;SDS011;22070;50.922;5.430;2022-10-16T04:39:06;2.40;;;1.60;;
36001;SDS011;22070;50.922;5.430;2022-10-16T04:41:32;3.10;;;1.98;;
36001;SDS011;22070;50.922;5.430;2022-10-16T04:43:58;5.05;;;1.70;;
36001;SDS011;22070;50.922;5.430;2022-10-16T04:46:23;2.28;;;1.73;;
36001;SDS011;22070;50.922;5.430;2022-10-16T04:48:49;5.22;;;1.50;;
36001;SDS011;22070;50.922;5.430;2022-10-16T04:51:15;2.73;;;1.23;;
36001;SDS011;22070;50.922;5.430;2022-10-16T04:53:40;4.85;;;1.77;;
36001;SDS011;22070;50.922;5.430;2022-10-16T04:56:06;5.38;;;1.92;;
36001;SDS011;22070;50.922;5.430;2022-10-16T04:58:32;3.58;;;1.80;;
36001;SDS011;22070;50.922;5.430;2022-10-16T05:00:58;7.22;;;1.95;;
36001;SDS011;22070;50.922;5.430;2022-10-16T05:03:23;2.05;;;1.80;;
36001;SDS011;22070;50.922;5.430;2022-10-16T05:05:49;4.80;;;1.90;;
36001;SDS011;22070;50.922;5.430;2022-10-16T05:08:15;2.20;;;2.00;;
36001;SDS011;22070;50.922;5.430;2022-10-16T05:10:42;6.30;;;2.33;;
36001;SDS011;22070;50.922;5.430;2022-10-16T05:13:08;2.75;;;1.90;;
36001;SDS011;22070;50.922;5.430;2022-10-16T05:15:34;2.03;;;1.88;;
36001;SDS011;22070;50.922;5.430;2022-10-16T05:18:00;2.97;;;1.93;;
36001;SDS011;22070;50.922;5.430;2022-10-16T05:20:26;2.38;;;1.48;;
36001;SDS011;22070;50.922;5.430;2022-10-16T05:22:51;6.13;;;2.27;;
36001;SDS011;22070;50.922;5.430;2022-10-16T05:25:17;5.90;;;2.00;;
36001;SDS011;22070;50.922;5.430;2022-10-16T05:27:43;7.07;;;2.60;;
36001;SDS011;22070;50.922;5.430;2022-10-16T05:30:12;6.40;;;2.30;;
36001;SDS011;22070;50.922;5.430;2022-10-16T05:32:37;2.85;;;2.42;;
36001;SDS011;22070;50.922;5.430;2022-10-16T05:35:03;3.35;;;2.20;;
36001;SDS011;22070;50.922;5.430;2022-10-16T05:37:29;6.65;;;2.55;;
36001;SDS011;22070;50.922;5.430;2022-10-16T05:39:55;3.67;;;2.60;;
36001;SDS011;22070;50.922;5.430;2022-10-16T05:42:20;2.83;;;2.20;;
36001;SDS011;22070;50.922;5.430;2022-10-16T05:44:46;4.03;;;2.23;;
36001;SDS011;22070;50.922;5.430;2022-10-16T05:47:12;1.97;;;1.80;;
36001;SDS011;22070;50.922;5.430;2022-10-16T05:49:39;2.40;;;2.20;;
36001;SDS011;22070;50.922;5.430;2022-10-16T05:52:04;7.63;;;2.42;;
36001;SDS011;22070;50.922;5.430;2022-10-16T05:54:30;5.10;;;2.90;;
36001;SDS011;22070;50.922;5.430;2022-10-16T05:56:56;7.10;;;2.70;;
36001;SDS011;22070;50.922;5.430;2022-10-16T05:59:21;2.67;;;1.90;;
36001;SDS011;22070;50.922;5.430;2022-10-16T06:01:47;4.27;;;2.50;;
36001;SDS011;22070;50.922;5.430;2022-10-16T06:04:12;2.47;;;2.27;;
36001;SDS011;22070;50.922;5.430;2022-10-16T06:06:38;3.93;;;2.40;;
36001;SDS011;22070;50.922;5.430;2022-10-16T06:09:04;5.00;;;2.63;;
36001;SDS011;22070;50.922;5.430;2022-10-16T06:11:31;4.83;;;2.30;;
36001;SDS011;22070;50.922;5.430;2022-10-16T06:13:59;3.67;;;2.40;;
36001;SDS011;22070;50.922;5.430;2022-10-16T06:16:27;6.20;;;2.88;;
36001;SDS011;22070;50.922;5.430;2022-10-16T06:18:54;1.85;;;1.65;;
36001;SDS011;22070;50.922;5.430;2022-10-16T06:21:22;2.25;;;2.05;;
36001;SDS011;22070;50.922;5.430;2022-10-16T06:23:52;5.35;;;2.78;;
36001;SDS011;22070;50.922;5.430;2022-10-16T06:26:20;4.65;;;2.70;;
36001;SDS011;22070;50.922;5.430;2022-10-16T06:28:47;5.20;;;2.67;;
36001;SDS011;22070;50.922;5.430;2022-10-16T06:31:13;7.33;;;2.80;;
36001;SDS011;22070;50.922;5.430;2022-10-16T06:33:40;7.78;;;2.75;;
36001;SDS011;22070;50.922;5.430;2022-10-16T06:36:09;3.38;;;3.00;;
36001;SDS011;22070;50.922;5.430;2022-10-16T06:38:37;5.15;;;2.60;;
36001;SDS011;22070;50.922;5.430;2022-10-16T06:41:03;2.60;;;2.40;;
36001;SDS011;22070;50.922;5.430;2022-10-16T06:43:30;7.43;;;2.58;;
36001;SDS011;22070;50.922;5.430;2022-10-16T06:45:57;6.68;;;2.80;;
36001;SDS011;22070;50.922;5.430;2022-10-16T06:50:56;10.00;;;2.67;;
36001;SDS011;22070;50.922;5.430;2022-10-16T06:53:22;5.28;;;2.72;;
36001;SDS011;22070;50.922;5.430;2022-10-16T06:55:48;3.33;;;2.58;;
36001;SDS011;22070;50.922;5.430;2022-10-16T06:58:14;3.03;;;2.63;;
36001;SDS011;22070;50.922;5.430;2022-10-16T07:00:39;3.97;;;2.53;;
36001;SDS011;22070;50.922;5.430;2022-10-16T07:03:05;8.33;;;2.97;;
36001;SDS011;22070;50.922;5.430;2022-10-16T07:05:31;6.33;;;2.97;;
36001;SDS011;22070;50.922;5.430;2022-10-16T07:07:56;3.65;;;2.50;;
36001;SDS011;22070;50.922;5.430;2022-10-16T07:10:22;5.95;;;2.95;;
36001;SDS011;22070;50.922;5.430;2022-10-16T07:12:49;5.93;;;3.58;;
36001;SDS011;22070;50.922;5.430;2022-10-16T07:15:15;4.47;;;2.67;;
36001;SDS011;22070;50.922;5.430;2022-10-16T07:17:40;4.57;;;2.70;;
36001;SDS011;22070;50.922;5.430;2022-10-16T07:20:06;3.23;;;2.57;;
36001;SDS011;22070;50.922;5.430;2022-10-16T07:22:32;3.83;;;2.30;;
36001;SDS011;22070;50.922;5.430;2022-10-16T07:24:57;3.30;;;2.50;;
36001;SDS011;22070;50.922;5.430;2022-10-16T07:27:23;3.60;;;2.28;;
36001;SDS011;22070;50.922;5.430;2022-10-16T07:29:49;5.07;;;2.07;;
36001;SDS011;22070;50.922;5.430;2022-10-16T07:32:15;4.23;;;2.50;;
36001;SDS011;22070;50.922;5.430;2022-10-16T07:34:41;2.60;;;1.90;;
36001;SDS011;22070;50.922;5.430;2022-10-16T07:37:07;4.28;;;2.13;;
36001;SDS011;22070;50.922;5.430;2022-10-16T07:39:32;7.60;;;2.20;;
36001;SDS011;22070;50.922;5.430;2022-10-16T07:41:58;2.22;;;2.00;;
36001;SDS011;22070;50.922;5.430;2022-10-16T07:44:24;2.35;;;1.70;;
36001;SDS011;22070;50.922;5.430;2022-10-16T07:46:49;3.53;;;1.60;;
36001;SDS011;22070;50.922;5.430;2022-10-16T07:49:15;3.05;;;1.77;;
36001;SDS011;22070;50.922;5.430;2022-10-16T07:51:41;2.30;;;1.67;;
36001;SDS011;22070;50.922;5.430;2022-10-16T07:54:08;3.40;;;1.40;;
36001;SDS011;22070;50.922;5.430;2022-10-16T07:56:36;7.10;;;1.60;;
36001;SDS011;22070;50.922;5.430;2022-10-16T07:59:02;2.60;;;1.58;;
36001;SDS011;22070;50.922;5.430;2022-10-16T08:01:27;2.53;;;1.53;;
36001;SDS011;22070;50.922;5.430;2022-10-16T08:03:53;2.17;;;1.08;;
36001;SDS011;22070;50.922;5.430;2022-10-16T08:06:19;4.40;;;1.50;;
36001;SDS011;22070;50.922;5.430;2022-10-16T08:08:46;3.30;;;1.40;;
36001;SDS011;22070;50.922;5.430;2022-10-16T08:11:12;3.92;;;1.70;;
36001;SDS011;22070;50.922;5.430;2022-10-16T08:13:40;4.90;;;1.20;;
36001;SDS011;22070;50.922;5.430;2022-10-16T08:16:06;4.40;;;1.35;;
36001;SDS011;22070;50.922;5.430;2022-10-16T08:20:59;2.78;;;1.30;;
36001;SDS011;22070;50.922;5.430;2022-10-16T08:23:26;2.50;;;1.30;;
36001;SDS011;22070;50.922;5.430;2022-10-16T08:25:52;3.03;;;1.15;;
36001;SDS011;22070;50.922;5.430;2022-10-16T08:28:18;1.83;;;1.15;;
36001;SDS011;22070;50.922;5.430;2022-10-16T08:30:44;2.40;;;1.00;;
36001;SDS011;22070;50.922;5.430;2022-10-16T08:33:10;6.30;;;1.40;;
36001;SDS011;22070;50.922;5.430;2022-10-16T08:35:36;2.13;;;1.02;;
36001;SDS011;22070;50.922;5.430;2022-10-16T08:38:05;2.33;;;1.00;;
36001;SDS011;22070;50.922;5.430;2022-10-16T08:40:32;3.80;;;1.00;;
36001;SDS011;22070;50.922;5.430;2022-10-16T08:45:49;4.00;;;0.90;;
36001;SDS011;22070;50.922;5.430;2022-10-16T08:48:41;9.00;;;1.13;;
36001;SDS011;22070;50.922;5.430;2022-10-16T08:51:08;3.90;;;1.10;;
36001;SDS011;22070;50.922;5.430;2022-10-16T08:53:38;1.63;;;0.80;;
36001;SDS011;22070;50.922;5.430;2022-10-16T08:56:08;4.00;;;1.10;;
36001;SDS011;22070;50.922;5.430;2022-10-16T08:58:34;4.00;;;1.00;;
36001;SDS011;22070;50.922;5.430;2022-10-16T09:01:11;3.50;;;0.80;;
36001;SDS011;22070;50.922;5.430;2022-10-16T09:06:41;3.72;;;1.00;;
36001;SDS011;22070;50.922;5.430;2022-10-16T09:12:20;1.25;;;0.70;;
36001;SDS011;22070;50.922;5.430;2022-10-16T09:17:40;1.05;;;0.57;;
36001;SDS011;22070;50.922;5.430;2022-10-16T09:23:00;3.92;;;1.10;;
36001;SDS011;22070;50.922;5.430;2022-10-16T09:25:37;4.75;;;1.15;;
36001;SDS011;22070;50.922;5.430;2022-10-16T09:28:07;2.45;;;0.90;;
36001;SDS011;22070;50.922;5.430;2022-10-16T09:30:34;1.83;;;0.60;;
36001;SDS011;22070;50.922;5.430;2022-10-16T09:33:00;4.30;;;1.10;;
36001;SDS011;22070;50.922;5.430;2022-10-16T09:35:32;7.22;;;0.95;;
36001;SDS011;22070;50.922;5.430;2022-10-16T09:38:04;3.50;;;0.95;;
36001;SDS011;22070;50.922;5.430;2022-10-16T09:40:31;4.47;;;1.42;;
36001;SDS011;22070;50.922;5.430;2022-10-16T09:46:03;3.30;;;0.90;;
36001;SDS011;22070;50.922;5.430;2022-10-16T09:48:46;1.98;;;0.80;;
36001;SDS011;22070;50.922;5.430;2022-10-16T09:51:17;4.10;;;1.23;;
36001;SDS011;22070;50.922;5.430;2022-10-16T09:56:36;4.47;;;0.77;;
36001;SDS011;22070;50.922;5.430;2022-10-16T10:01:47;2.70;;;0.88;;
36001;SDS011;22070;50.922;5.430;2022-10-16T10:04:17;2.78;;;0.80;;
36001;SDS011;22070;50.922;5.430;2022-10-16T10:09:23;3.93;;;0.83;;
36001;SDS011;22070;50.922;5.430;2022-10-16T10:11:54;3.70;;;1.05;;
36001;SDS011;22070;50.922;5.430;2022-10-16T10:14:37;2.00;;;0.80;;
36001;SDS011;22070;50.922;5.430;2022-10-16T10:22:24;2.45;;;0.80;;
36001;SDS011;22070;50.922;5.430;2022-10-16T10:27:21;3.75;;;0.90;;
36001;SDS011;22070;50.922;5.430;2022-10-16T10:35:22;4.05;;;0.80;;
36001;SDS011;22070;50.922;5.430;2022-10-16T10:38:00;3.72;;;0.90;;
36001;SDS011;22070;50.922;5.430;2022-10-16T10:46:17;2.63;;;0.75;;
36001;SDS011;22070;50.922;5.430;2022-10-16T10:49:26;5.88;;;0.82;;
36001;SDS011;22070;50.922;5.430;2022-10-16T10:58:15;1.33;;;0.60;;
36001;SDS011;22070;50.922;5.430;2022-10-16T11:06:55;2.08;;;0.70;;
36001;SDS011;22070;50.922;5.430;2022-10-16T11:09:35;3.05;;;1.02;;
36001;SDS011;22070;50.922;5.430;2022-10-16T11:17:17;7.03;;;1.70;;
36001;SDS011;22070;50.922;5.430;2022-10-16T11:19:48;3.38;;;0.60;;
36001;SDS011;22070;50.922;5.430;2022-10-16T11:22:41;3.80;;;0.77;;
36001;SDS011;22070;50.922;5.430;2022-10-16T11:25:28;4.30;;;0.70;;
36001;SDS011;22070;50.922;5.430;2022-10-16T11:30:31;5.03;;;1.38;;
36001;SDS011;22070;50.922;5.430;2022-10-16T11:41:19;2.20;;;0.68;;
36001;SDS011;22070;50.922;5.430;2022-10-16T11:46:43;3.50;;;0.80;;
36001;SDS011;22070;50.922;5.430;2022-10-16T11:49:16;3.88;;;0.63;;
36001;SDS011;22070;50.922;5.430;2022-10-16T11:51:53;2.78;;;0.90;;
36001;SDS011;22070;50.922;5.430;2022-10-16T11:54:33;2.70;;;0.68;;
36001;SDS011;22070;50.922;5.430;2022-10-16T11:57:20;2.53;;;0.60;;
36001;SDS011;22070;50.922;5.430;2022-10-16T11:59:50;3.53;;;0.75;;
36001;SDS011;22070;50.922;5.430;2022-10-16T12:02:33;2.53;;;1.00;;
36001;SDS011;22070;50.922;5.430;2022-10-16T12:08:06;1.73;;;0.50;;
36001;SDS011;22070;50.922;5.430;2022-10-16T12:10:36;2.88;;;0.82;;
36001;SDS011;22070;50.922;5.430;2022-10-16T12:13:48;1.83;;;0.70;;
36001;SDS011;22070;50.922;5.430;2022-10-16T12:18:37;3.85;;;0.73;;
36001;SDS011;22070;50.922;5.430;2022-10-16T12:23:31;2.88;;;0.70;;
36001;SDS011;22070;50.922;5.430;2022-10-16T12:26:26;1.88;;;0.80;;
36001;SDS011;22070;50.922;5.430;2022-10-16T12:28:55;2.65;;;0.73;;
36001;SDS011;22070;50.922;5.430;2022-10-16T12:31:45;2.00;;;0.70;;
36001;SDS011;22070;50.922;5.430;2022-10-16T12:34:23;3.13;;;0.82;;
36001;SDS011;22070;50.922;5.430;2022-10-16T12:39:48;2.20;;;0.60;;
36001;SDS011;22070;50.922;5.430;2022-10-16T12:42:20;2.30;;;0.88;;
36001;SDS011;22070;50.922;5.430;2022-10-16T12:44:47;1.73;;;0.60;;
36001;SDS011;22070;50.922;5.430;2022-10-16T12:47:23;2.00;;;0.50;;
36001;SDS011;22070;50.922;5.430;2022-10-16T12:50:01;2.45;;;0.80;;
36001;SDS011;22070;50.922;5.430;2022-10-16T12:54:58;2.47;;;0.60;;
36001;SDS011;22070;50.922;5.430;2022-10-16T13:02:41;3.15;;;0.90;;
36001;SDS011;22070;50.922;5.430;2022-10-16T13:22:27;2.67;;;0.55;;
36001;SDS011;22070;50.922;5.430;2022-10-16T13:28:00;1.40;;;0.57;;
36001;SDS011;22070;50.922;5.430;2022-10-16T13:30:29;4.70;;;0.70;;
36001;SDS011;22070;50.922;5.430;2022-10-16T13:33:04;1.55;;;0.50;;
36001;SDS011;22070;50.922;5.430;2022-10-16T13:35:54;1.40;;;0.40;;
36001;SDS011;22070;50.922;5.430;2022-10-16T13:38:22;3.10;;;0.43;;
36001;SDS011;22070;50.922;5.430;2022-10-16T13:40:56;3.67;;;0.70;;
36001;SDS011;22070;50.922;5.430;2022-10-16T13:43:46;1.55;;;0.47;;
36001;SDS011;22070;50.922;5.430;2022-10-16T13:48:40;4.45;;;0.50;;
36001;SDS011;22070;50.922;5.430;2022-10-16T13:53:42;2.25;;;0.52;;
36001;SDS011;22070;50.922;5.430;2022-10-16T13:58:36;1.30;;;0.50;;
36001;SDS011;22070;50.922;5.430;2022-10-16T14:01:05;2.57;;;0.80;;
36001;SDS011;22070;50.922;5.430;2022-10-16T14:03:41;2.60;;;0.68;;
36001;SDS011;22070;50.922;5.430;2022-10-16T14:06:11;5.32;;;0.88;;
36001;SDS011;22070;50.922;5.430;2022-10-16T14:08:41;1.55;;;0.55;;
36001;SDS011;22070;50.922;5.430;2022-10-16T14:11:09;1.77;;;0.68;;
36001;SDS011;22070;50.922;5.430;2022-10-16T14:13:38;4.32;;;0.73;;
36001;SDS011;22070;50.922;5.430;2022-10-16T14:16:08;1.08;;;0.50;;
36001;SDS011;22070;50.922;5.430;2022-10-16T14:18:40;1.50;;;0.50;;
36001;SDS011;22070;50.922;5.430;2022-10-16T14:21:06;3.30;;;0.70;;
36001;SDS011;22070;50.922;5.430;2022-10-16T14:23:37;3.03;;;0.95;;
36001;SDS011;22070;50.922;5.430;2022-10-16T14:28:38;4.30;;;0.77;;
36001;SDS011;22070;50.922;5.430;2022-10-16T14:33:53;1.85;;;0.77;;
36001;SDS011;22070;50.922;5.430;2022-10-16T14:36:19;3.57;;;0.60;;
36001;SDS011;22070;50.922;5.430;2022-10-16T14:39:06;1.67;;;0.50;;
36001;SDS011;22070;50.922;5.430;2022-10-16T14:41:45;3.78;;;0.50;;
36001;SDS011;22070;50.922;5.430;2022-10-16T14:44:13;1.98;;;0.80;;
36001;SDS011;22070;50.922;5.430;2022-10-16T14:46:40;1.63;;;0.45;;
36001;SDS011;22070;50.922;5.430;2022-10-16T14:51:37;3.65;;;0.90;;
36001;SDS011;22070;50.922;5.430;2022-10-16T14:54:03;4.13;;;1.05;;
36001;SDS011;22070;50.922;5.430;2022-10-16T14:56:30;2.50;;;0.80;;
36001;SDS011;22070;50.922;5.430;2022-10-16T14:59:01;2.63;;;0.90;;
36001;SDS011;22070;50.922;5.430;2022-10-16T15:01:27;4.05;;;1.00;;
36001;SDS011;22070;50.922;5.430;2022-10-16T15:03:53;3.87;;;0.60;;
36001;SDS011;22070;50.922;5.430;2022-10-16T15:06:20;2.90;;;0.75;;
36001;SDS011;22070;50.922;5.430;2022-10-16T15:08:47;3.75;;;0.80;;
36001;SDS011;22070;50.922;5.430;2022-10-16T15:11:16;4.80;;;1.08;;
36001;SDS011;22070;50.922;5.430;2022-10-16T15:13:43;6.03;;;0.95;;
36001;SDS011;22070;50.922;5.430;2022-10-16T15:16:13;1.40;;;0.80;;
36001;SDS011;22070;50.922;5.430;2022-10-16T15:18:40;1.92;;;0.90;;
36001;SDS011;22070;50.922;5.430;2022-10-16T15:21:05;3.80;;;0.87;;
36001;SDS011;22070;50.922;5.430;2022-10-16T15:23:31;8.57;;;0.73;;
36001;SDS011;22070;50.922;5.430;2022-10-16T15:25:57;3.67;;;0.90;;
36001;SDS011;22070;50.922;5.430;2022-10-16T15:28:23;6.00;;;1.00;;
36001;SDS011;22070;50.922;5.430;2022-10-16T15:30:51;5.88;;;0.80;;
36001;SDS011;22070;50.922;5.430;2022-10-16T15:33:19;3.42;;;0.80;;
36001;SDS011;22070;50.922;5.430;2022-10-16T15:35:47;2.53;;;1.02;;
36001;SDS011;22070;50.922;5.430;2022-10-16T15:38:14;5.38;;;1.10;;
36001;SDS011;22070;50.922;5.430;2022-10-16T15:40:41;7.22;;;1.00;;
36001;SDS011;22070;50.922;5.430;2022-10-16T15:43:07;4.77;;;1.20;;
36001;SDS011;22070;50.922;5.430;2022-10-16T15:45:33;3.63;;;0.90;;
36001;SDS011;22070;50.922;5.430;2022-10-16T15:47:59;4.80;;;1.10;;
36001;SDS011;22070;50.922;5.430;2022-10-16T15:50:25;4.68;;;1.10;;
36001;SDS011;22070;50.922;5.430;2022-10-16T15:52:51;4.60;;;1.07;;
36001;SDS011;22070;50.922;5.430;2022-10-16T15:55:17;6.73;;;1.50;;
36001;SDS011;22070;50.922;5.430;2022-10-16T15:57:44;8.70;;;1.67;;
36001;SDS011;22070;50.922;5.430;2022-10-16T16:00:14;2.50;;;1.20;;
36001;SDS011;22070;50.922;5.430;2022-10-16T16:02:42;2.85;;;1.60;;
36001;SDS011;22070;50.922;5.430;2022-10-16T16:05:09;8.70;;;1.30;;
36001;SDS011;22070;50.922;5.430;2022-10-16T16:07:36;7.65;;;2.38;;
36001;SDS011;22070;50.922;5.430;2022-10-16T16:10:04;6.18;;;1.70;;
36001;SDS011;22070;50.922;5.430;2022-10-16T16:12:31;14.32;;;2.03;;
36001;SDS011;22070;50.922;5.430;2022-10-16T16:14:57;8.07;;;2.35;;
36001;SDS011;22070;50.922;5.430;2022-10-16T16:17:23;13.43;;;2.10;;
36001;SDS011;22070;50.922;5.430;2022-10-16T16:19:49;3.30;;;1.80;;
36001;SDS011;22070;50.922;5.430;2022-10-16T16:22:15;3.00;;;1.53;;
36001;SDS011;22070;50.922;5.430;2022-10-16T16:24:41;3.00;;;1.90;;
36001;SDS011;22070;50.922;5.430;2022-10-16T16:27:06;7.07;;;1.67;;
36001;SDS011;22070;50.922;5.430;2022-10-16T16:29:32;5.03;;;1.60;;
36001;SDS011;22070;50.922;5.430;2022-10-16T16:31:58;4.10;;;1.67;;
36001;SDS011;22070;50.922;5.430;2022-10-16T16:34:26;3.97;;;1.70;;
36001;SDS011;22070;50.922;5.430;2022-10-16T16:36:52;4.82;;;1.80;;
36001;SDS011;22070;50.922;5.430;2022-10-16T16:39:18;3.22;;;2.15;;
36001;SDS011;22070;50.922;5.430;2022-10-16T16:41:44;6.63;;;1.77;;
36001;SDS011;22070;50.922;5.430;2022-10-16T16:44:13;3.75;;;2.10;;
36001;SDS011;22070;50.922;5.430;2022-10-16T16:46:40;6.93;;;1.98;;
36001;SDS011;22070;50.922;5.430;2022-10-16T16:49:08;4.18;;;1.92;;
36001;SDS011;22070;50.922;5.430;2022-10-16T16:51:35;7.65;;;2.80;;
36001;SDS011;22070;50.922;5.430;2022-10-16T16:54:01;4.40;;;3.00;;
36001;SDS011;22070;50.922;5.430;2022-10-16T16:56:26;8.37;;;1.90;;
36001;SDS011;22070;50.922;5.430;2022-10-16T16:58:53;3.67;;;1.90;;
36001;SDS011;22070;50.922;5.430;2022-10-16T17:01:21;6.18;;;2.53;;
36001;SDS011;22070;50.922;5.430;2022-10-16T17:03:51;3.05;;;2.13;;
36001;SDS011;22070;50.922;5.430;2022-10-16T17:06:22;3.47;;;1.90;;
36001;SDS011;22070;50.922;5.430;2022-10-16T17:08:49;3.25;;;2.03;;
36001;SDS011;22070;50.922;5.430;2022-10-16T17:11:16;3.85;;;2.42;;
36001;SDS011;22070;50.922;5.430;2022-10-16T17:13:44;4.90;;;2.75;;
36001;SDS011;22070;50.922;5.430;2022-10-16T17:16:10;4.17;;;3.60;;
36001;SDS011;22070;50.922;5.430;2022-10-16T17:18:35;10.43;;;5.07;;
36001;SDS011;22070;50.922;5.430;2022-10-16T17:21:02;9.18;;;3.75;;
36001;SDS011;22070;50.922;5.430;2022-10-16T17:23:30;5.68;;;3.92;;
36001;SDS011;22070;50.922;5.430;2022-10-16T17:25:58;9.88;;;3.88;;
36001;SDS011;22070;50.922;5.430;2022-10-16T17:28:35;7.68;;;3.83;;
36001;SDS011;22070;50.922;5.430;2022-10-16T17:33:32;6.53;;;3.88;;
36001;SDS011;22070;50.922;5.430;2022-10-16T17:35:58;7.93;;;2.60;;
36001;SDS011;22070;50.922;5.430;2022-10-16T17:38:24;4.83;;;3.33;;